Time;durP1;ratioP1;P1;durP2;ratioP2;P2;SDS_P1;SDS_P2;PMS_P1;PMS_P2;Temp;Humidity;BMP_temperature;BMP_pressure;BME280_temperature;BME280_humidity;BME280_pressure;Samples;Min_cycle;Max_cycle;Signal;HPM_P1;HPM_P2
2023/02/18 00:00:32;;;;;;;8.87;2.27;;;29.10;63.30;;;;;;5071057;28;20188;-71
2023/02/18 00:02:59;;;;;;;10.87;2.37;;;28.90;63.30;;;;;;5071660;28;20190;-70
2023/02/18 00:05:29;;;;;;;11.97;2.80;;;28.90;64.40;;;;;;5072034;28;20242;-73
2023/02/18 00:07:56;;;;;;;9.47;2.23;;;29.30;63.80;;;;;;5069706;28;20591;-70
2023/02/18 00:10:23;;;;;;;11.47;2.37;;;28.80;64.60;;;;;;5071533;28;20239;-70
2023/02/18 00:12:51;;;;;;;9.00;2.70;;;29.20;64.50;;;;;;5066582;28;20186;-70
2023/02/18 00:15:18;;;;;;;8.97;2.37;;;29.30;63.90;;;;;;5066610;28;20218;-71
2023/02/18 00:17:45;;;;;;;8.63;2.73;;;29.60;63.40;;;;;;5062690;28;20180;-71
2023/02/18 00:20:13;;;;;;;7.83;2.13;;;29.30;63.50;;;;;;5064550;28;20317;-70
2023/02/18 00:22:40;;;;;;;11.73;2.30;;;29.60;63.00;;;;;;5064174;28;20198;-71
2023/02/18 00:25:08;;;;;;;7.50;2.47;;;29.80;62.30;;;;;;5069546;28;20195;-70
2023/02/18 00:27:35;;;;;;;10.23;2.73;;;29.90;61.80;;;;;;5070038;28;20188;-70
2023/02/18 00:30:03;;;;;;;9.43;2.77;;;29.30;63.50;;;;;;5066396;28;20225;-71
2023/02/18 00:32:30;;;;;;;10.07;2.67;;;29.80;62.30;;;;;;5067503;28;20179;-70
2023/02/18 00:34:58;;;;;;;8.63;2.17;;;29.80;62.20;;;;;;5066177;28;20283;-70
2023/02/18 00:37:25;;;;;;;9.77;2.97;;;29.80;62.10;;;;;;5066321;28;20243;-71
2023/02/18 00:39:52;;;;;;;6.93;1.87;;;29.70;62.00;;;;;;5067944;28;20268;-71
2023/02/18 00:42:20;;;;;;;6.90;2.22;;;29.60;61.90;;;;;;5069389;28;20179;-71
2023/02/18 00:44:47;;;;;;;6.23;2.67;;;29.60;62.90;;;;;;5071782;28;20293;-70
2023/02/18 00:47:15;;;;;;;5.47;2.13;;;29.40;63.50;;;;;;5071123;28;20634;-71
2023/02/18 00:49:42;;;;;;;6.83;2.23;;;29.50;62.50;;;;;;5071543;28;20646;-71
2023/02/18 00:52:09;;;;;;;6.50;2.10;;;29.70;62.60;;;;;;5071421;28;20210;-71
2023/02/18 00:54:36;;;;;;;10.17;2.40;;;29.80;62.00;;;;;;5072046;28;20202;-69
2023/02/18 00:57:04;;;;;;;5.80;2.07;;;29.80;61.70;;;;;;5070100;28;20198;-70
2023/02/18 00:59:31;;;;;;;7.97;2.43;;;30.00;61.30;;;;;;5070142;28;20183;-72
2023/02/18 01:01:58;;;;;;;7.73;2.30;;;29.80;61.70;;;;;;5072430;28;20559;-69
2023/02/18 01:04:26;;;;;;;10.80;2.73;;;29.60;62.40;;;;;;5071098;28;20241;-70
2023/02/18 01:06:53;;;;;;;7.90;2.33;;;29.70;62.10;;;;;;5072542;28;20179;-69
2023/02/18 01:09:24;;;;;;;6.47;2.23;;;29.60;62.20;;;;;;5070170;28;20223;-70
2023/02/18 01:11:51;;;;;;;8.47;2.60;;;29.80;62.20;;;;;;5070280;28;20191;-71
2023/02/18 01:14:19;;;;;;;13.67;2.93;;;29.90;61.10;;;;;;5072129;28;20585;-73
2023/02/18 01:16:46;;;;;;;8.07;2.77;;;30.00;61.20;;;;;;5072054;28;20638;-72
2023/02/18 01:19:13;;;;;;;10.13;2.37;;;29.90;61.10;;;;;;5070996;28;20182;-71
2023/02/18 01:21:41;;;;;;;7.47;3.17;;;29.90;60.90;;;;;;5071530;28;20622;-70
2023/02/18 01:24:08;;;;;;;8.57;2.90;;;29.90;61.70;;;;;;5070947;28;20214;-71
2023/02/18 01:26:35;;;;;;;12.60;3.17;;;30.10;60.50;;;;;;5071081;28;20198;-70
2023/02/18 01:29:03;;;;;;;8.50;2.80;;;29.90;61.90;;;;;;5072036;28;20188;-71
2023/02/18 01:31:31;;;;;;;8.33;2.90;;;30.30;60.90;;;;;;5071373;28;20275;-70
2023/02/18 01:33:58;;;;;;;5.57;2.40;;;30.40;60.10;;;;;;5071238;28;20214;-70
2023/02/18 01:36:26;;;;;;;8.50;3.00;;;30.40;60.10;;;;;;5070195;28;20552;-70
2023/02/18 01:38:53;;;;;;;7.07;2.60;;;30.80;60.30;;;;;;5071561;28;20190;-71
2023/02/18 01:41:20;;;;;;;9.93;2.70;;;30.60;59.70;;;;;;5071422;28;20691;-71
2023/02/18 01:43:48;;;;;;;9.20;3.07;;;30.40;60.60;;;;;;5071500;28;20672;-71
2023/02/18 01:46:19;;;;;;;9.47;2.67;;;30.50;60.10;;;;;;5070092;28;20305;-70
2023/02/18 01:48:46;;;;;;;7.78;2.70;;;30.70;60.20;;;;;;5068409;28;20179;-70
2023/02/18 01:51:33;;;;;;;11.50;2.90;;;31.20;59.70;;;;;;5069133;28;20189;-69
2023/02/18 01:54:34;;;;;;;9.93;3.15;;;31.30;59.00;;;;;;5072011;28;20178;-70
2023/02/18 01:57:09;;;;;;;10.37;2.73;;;31.20;59.50;;;;;;5069503;28;20190;-71
2023/02/18 01:59:44;;;;;;;5.60;2.30;;;31.30;58.10;;;;;;5071221;28;20186;-72
2023/02/18 02:02:16;;;;;;;8.77;2.77;;;31.40;58.40;;;;;;5067338;28;20228;-70
2023/02/18 02:04:44;;;;;;;6.80;2.72;;;31.30;57.90;;;;;;5070880;28;20631;-69
2023/02/18 02:07:11;;;;;;;9.02;3.25;;;31.30;58.50;;;;;;5070211;28;20190;-71
2023/02/18 02:09:40;;;;;;;8.07;3.30;;;31.20;58.70;;;;;;5070527;28;20187;-72
2023/02/18 02:12:15;;;;;;;9.03;2.80;;;31.30;58.30;;;;;;5071730;28;20794;-71
2023/02/18 02:15:00;;;;;;;6.10;2.40;;;31.30;57.90;;;;;;5070614;28;20187;-73
2023/02/18 02:17:45;;;;;;;7.30;2.78;;;31.30;57.60;;;;;;5066876;28;20187;-70
2023/02/18 02:20:45;;;;;;;8.40;2.70;;;31.00;58.30;;;;;;5070731;28;20187;-69
2023/02/18 02:23:35;;;;;;;11.95;2.70;;;31.30;58.80;;;;;;5070358;28;20186;-70
2023/02/18 02:26:05;;;;;;;9.48;2.67;;;31.70;58.30;;;;;;5066757;28;20210;-69
2023/02/18 02:29:03;;;;;;;12.23;2.72;;;31.80;57.90;;;;;;5070869;28;20523;-70
2023/02/18 02:32:07;;;;;;;10.95;2.60;;;32.00;56.50;;;;;;5070986;28;20180;-72
2023/02/18 02:34:37;;;;;;;6.40;2.15;;;31.60;56.70;;;;;;5070779;28;20550;-70
2023/02/18 02:37:26;;;;;;;8.38;2.45;;;31.60;57.10;;;;;;5069969;28;20699;-70
2023/02/18 02:40:05;;;;;;;8.40;2.40;;;31.90;56.80;;;;;;5070998;28;20180;-71
2023/02/18 02:43:16;;;;;;;6.30;2.63;;;31.80;55.90;;;;;;5069291;28;20175;-72
2023/02/18 02:46:17;;;;;;;7.13;2.53;;;31.60;56.80;;;;;;5064522;28;20219;-73
2023/02/18 02:49:02;;;;;;;8.18;2.17;;;31.60;56.50;;;;;;5071070;28;20182;-74
2023/02/18 02:51:33;;;;;;;7.28;2.58;;;31.60;56.60;;;;;;5065382;28;20711;-75
2023/02/18 02:54:18;;;;;;;8.02;2.70;;;31.50;56.90;;;;;;5071371;28;20178;-73
2023/02/18 02:56:46;;;;;;;9.48;2.78;;;31.80;56.40;;;;;;5074224;28;20178;-72
2023/02/18 02:59:26;;;;;;;6.88;2.67;;;31.60;56.80;;;;;;5060047;28;20686;-75
2023/02/18 03:02:05;;;;;;;12.13;2.25;;;32.10;55.50;;;;;;5066380;28;20202;-74
2023/02/18 03:04:50;;;;;;;33.05;4.60;;;31.80;56.10;;;;;;5069158;28;20271;-72
2023/02/18 03:07:36;;;;;;;9.27;2.88;;;31.80;56.20;;;;;;5066322;28;20190;-75
2023/02/18 03:10:13;;;;;;;9.43;2.65;;;31.70;56.00;;;;;;5072194;28;20653;-81
2023/02/18 03:12:53;;;;;;;7.15;2.60;;;32.10;54.70;;;;;;5074151;28;20191;-75
2023/02/18 03:15:55;;;;;;;5.90;2.22;;;32.00;55.70;;;;;;5072478;28;20237;-72
2023/02/18 03:18:34;;;;;;;9.30;2.50;;;32.20;54.80;;;;;;5073038;28;20190;-72
2023/02/18 03:21:02;;;;;;;9.65;2.95;;;32.50;53.70;;;;;;5071968;28;20520;-73
2023/02/18 03:23:41;;;;;;;8.30;2.38;;;32.30;55.00;;;;;;5073629;28;20654;-73
2023/02/18 03:26:10;;;;;;;5.57;2.47;;;32.50;54.10;;;;;;5073651;28;20194;-74
2023/02/18 03:28:39;;;;;;;7.68;2.40;;;32.50;54.10;;;;;;5074332;28;20183;-76
2023/02/18 03:31:12;;;;;;;7.72;2.28;;;32.70;53.60;;;;;;5069921;28;20187;-76
2023/02/18 03:33:53;;;;;;;12.07;2.90;;;32.60;53.30;;;;;;5071165;28;20187;-71
2023/02/18 03:36:22;;;;;;;9.68;3.17;;;32.50;53.70;;;;;;5073426;28;20186;-70
2023/02/18 03:39:06;;;;;;;6.45;2.50;;;32.80;53.60;;;;;;5072416;28;20167;-71
2023/02/18 03:41:34;;;;;;;7.53;2.58;;;33.30;51.70;;;;;;5072335;28;20187;-71
2023/02/18 03:44:06;;;;;;;4.90;2.30;;;32.50;52.90;;;;;;5073070;28;20687;-71
2023/02/18 03:46:35;;;;;;;11.05;2.83;;;32.30;54.30;;;;;;5073813;28;20187;-69
2023/02/18 03:49:04;;;;;;;8.63;2.45;;;32.40;53.50;;;;;;5070780;28;20262;-71
2023/02/18 03:51:32;;;;;;;9.68;2.72;;;32.40;54.10;;;;;;5072881;28;20190;-71
2023/02/18 03:53:59;;;;;;;14.25;3.00;;;32.40;54.40;;;;;;5073333;28;20198;-71
2023/02/18 03:56:27;;;;;;;9.40;3.00;;;33.10;53.50;;;;;;5070615;28;20270;-71
2023/02/18 03:58:54;;;;;;;7.85;3.10;;;32.60;53.70;;;;;;5072099;28;20210;-70
2023/02/18 04:01:21;;;;;;;7.85;2.83;;;33.00;52.60;;;;;;5073359;28;20275;-73
2023/02/18 04:03:49;;;;;;;8.20;2.95;;;32.90;52.30;;;;;;5072642;28;20226;-73
2023/02/18 04:06:16;;;;;;;12.05;3.42;;;33.10;52.20;;;;;;5073777;28;20602;-71
2023/02/18 04:08:44;;;;;;;6.72;2.17;;;33.80;52.20;;;;;;5070759;28;20183;-75
2023/02/18 04:11:14;;;;;;;6.28;2.38;;;33.50;50.70;;;;;;5070880;28;20676;-71
2023/02/18 04:13:41;;;;;;;11.30;3.13;;;33.40;51.40;;;;;;5072953;28;20248;-78
2023/02/18 04:16:09;;;;;;;10.80;2.40;;;33.00;51.70;;;;;;5073454;28;20185;-72
2023/02/18 04:18:36;;;;;;;8.40;2.33;;;33.30;51.00;;;;;;5068278;28;20258;-80
2023/02/18 04:21:03;;;;;;;8.10;2.40;;;33.20;50.90;;;;;;5072908;28;20175;-73
2023/02/18 04:23:31;;;;;;;8.98;2.00;;;33.20;50.70;;;;;;5069177;28;20183;-75
2023/02/18 04:25:58;;;;;;;8.82;2.67;;;33.00;50.10;;;;;;5065739;28;20211;-73
2023/02/18 04:28:25;;;;;;;6.88;2.55;;;32.90;51.70;;;;;;5066899;28;20176;-72
2023/02/18 04:30:53;;;;;;;8.90;2.20;;;33.40;49.90;;;;;;5068183;28;20256;-70
2023/02/18 04:33:21;;;;;;;7.55;2.42;;;33.60;49.30;;;;;;5064028;28;20225;-76
2023/02/18 04:35:48;;;;;;;8.38;2.33;;;33.40;49.00;;;;;;5073009;28;20183;-76
2023/02/18 04:38:24;;;;;;;8.32;2.42;;;32.40;51.50;;;;;;5073163;28;20190;-75
2023/02/18 04:40:51;;;;;;;6.70;2.28;;;32.70;50.80;;;;;;5072492;28;20171;-73
2023/02/18 04:43:19;;;;;;;7.25;1.90;;;32.80;50.90;;;;;;5071695;28;20187;-74
2023/02/18 04:45:46;;;;;;;8.48;2.38;;;33.00;50.50;;;;;;5072828;28;20314;-72
2023/02/18 04:48:13;;;;;;;8.20;2.50;;;32.70;51.60;;;;;;5071612;28;21008;-73
2023/02/18 04:50:41;;;;;;;7.03;2.47;;;32.30;52.40;;;;;;5072157;28;20240;-72
2023/02/18 04:53:08;;;;;;;6.95;2.05;;;31.80;53.30;;;;;;5072420;28;20198;-72
2023/02/18 04:55:36;;;;;;;12.95;2.50;;;31.40;54.40;;;;;;5064764;28;20210;-71
2023/02/18 04:58:03;;;;;;;6.28;2.10;;;31.10;55.10;;;;;;5073698;28;20222;-71
2023/02/18 05:00:30;;;;;;;10.55;2.75;;;30.50;56.60;;;;;;5066727;28;20175;-71
2023/02/18 05:02:58;;;;;;;8.82;2.53;;;30.10;58.20;;;;;;5070782;28;20189;-78
2023/02/18 05:05:25;;;;;;;5.57;2.47;;;29.90;58.40;;;;;;5069692;28;20321;-78
2023/02/18 05:07:52;;;;;;;10.50;2.30;;;29.80;58.50;;;;;;5072018;28;20233;-72
2023/02/18 05:10:20;;;;;;;6.90;2.53;;;29.70;59.20;;;;;;5070683;28;20210;-71
2023/02/18 05:12:47;;;;;;;9.70;2.57;;;29.60;59.50;;;;;;5071758;28;20266;-73
2023/02/18 05:15:14;;;;;;;7.93;2.30;;;29.40;59.70;;;;;;5072462;28;20202;-69
2023/02/18 05:17:42;;;;;;;12.67;2.50;;;29.30;59.50;;;;;;5070853;28;20184;-70
2023/02/18 05:20:09;;;;;;;9.90;2.50;;;29.20;59.80;;;;;;5071537;28;20663;-75
2023/02/18 05:22:37;;;;;;;8.43;2.37;;;29.20;59.30;;;;;;5071679;28;20283;-76
2023/02/18 05:25:05;;;;;;;10.23;2.70;;;29.00;59.00;;;;;;5071939;28;20218;-69
2023/02/18 05:27:33;;;;;;;9.60;2.40;;;28.90;59.30;;;;;;5069782;28;20179;-71
2023/02/18 05:30:00;;;;;;;10.73;2.30;;;28.80;59.10;;;;;;5071744;28;20633;-68
2023/02/18 05:32:27;;;;;;;10.33;2.73;;;28.70;58.90;;;;;;5073538;28;20170;-72
2023/02/18 05:34:54;;;;;;;7.80;2.53;;;28.60;59.10;;;;;;5066956;28;20186;-75
2023/02/18 05:37:22;;;;;;;11.07;2.73;;;28.40;59.70;;;;;;5066882;28;20250;-73
2023/02/18 05:39:49;;;;;;;9.00;2.43;;;28.40;59.90;;;;;;5071183;28;20199;-72
2023/02/18 05:42:17;;;;;;;5.53;2.30;;;28.30;60.20;;;;;;5071050;28;20258;-78
2023/02/18 05:44:44;;;;;;;7.83;2.20;;;28.20;60.40;;;;;;5070858;28;20246;-69
2023/02/18 05:47:13;;;;;;;9.60;2.77;;;28.10;60.40;;;;;;5071868;28;20625;-68
2023/02/18 05:49:41;;;;;;;6.87;2.93;;;28.00;60.60;;;;;;5070527;28;20191;-70
2023/02/18 05:52:09;;;;;;;8.70;2.17;;;28.00;60.20;;;;;;5071729;28;20472;-69
2023/02/18 05:54:37;;;;;;;5.57;2.27;;;28.00;59.30;;;;;;5065574;28;20186;-75
2023/02/18 05:57:05;;;;;;;6.87;2.60;;;28.00;58.20;;;;;;5069506;28;20186;-71
2023/02/18 05:59:33;;;;;;;12.43;3.13;;;28.00;57.10;;;;;;5070185;28;20183;-76
2023/02/18 06:02:00;;;;;;;7.07;2.53;;;28.00;57.30;;;;;;5065143;28;20266;-73
2023/02/18 06:04:28;;;;;;;6.97;2.70;;;28.00;56.50;;;;;;5059604;28;20330;-69
2023/02/18 06:06:55;;;;;;;7.07;2.40;;;28.00;56.40;;;;;;5070927;28;20187;-70
2023/02/18 06:09:23;;;;;;;9.13;2.67;;;28.00;56.60;;;;;;5069506;28;20662;-69
2023/02/18 06:11:50;;;;;;;7.67;2.53;;;28.10;56.50;;;;;;5069681;28;20180;-69
2023/02/18 06:14:19;;;;;;;8.97;2.80;;;27.90;55.60;;;;;;5066551;28;20232;-72
2023/02/18 06:16:46;;;;;;;8.10;2.67;;;27.90;56.30;;;;;;5065262;28;20193;-70
2023/02/18 06:19:14;;;;;;;8.10;2.50;;;27.80;57.50;;;;;;5066085;28;20182;-69
2023/02/18 06:21:41;;;;;;;15.77;2.90;;;27.70;57.40;;;;;;5064926;28;20270;-71
2023/02/18 06:24:08;;;;;;;11.50;2.43;;;27.70;56.60;;;;;;5065940;28;20233;-74
2023/02/18 06:26:36;;;;;;;8.80;2.67;;;27.70;56.20;;;;;;5067487;28;20195;-70
2023/02/18 06:29:03;;;;;;;8.37;2.40;;;27.70;54.90;;;;;;5064887;28;20175;-70
2023/02/18 06:31:31;;;;;;;11.07;2.50;;;27.90;53.10;;;;;;5067997;28;20183;-71
2023/02/18 06:33:58;;;;;;;6.90;3.23;;;29.00;50.40;;;;;;5068970;28;20186;-70
2023/02/18 06:36:25;;;;;;;10.27;2.90;;;30.30;47.80;;;;;;5070046;28;20183;-70
2023/02/18 06:38:56;;;;;;;10.18;3.17;;;30.90;45.70;;;;;;5069030;28;20252;-77
2023/02/18 06:41:24;;;;;;;9.77;2.30;;;30.20;46.20;;;;;;5070592;28;20199;-75
2023/02/18 06:43:51;;;;;;;8.90;2.45;;;30.10;45.50;;;;;;5069128;28;20190;-72
2023/02/18 06:46:19;;;;;;;9.02;2.33;;;30.70;44.90;;;;;;5066235;28;20195;-71
2023/02/18 06:48:46;;;;;;;6.22;1.98;;;31.20;44.30;;;;;;5065937;28;20258;-71
2023/02/18 06:51:15;;;;;;;8.07;2.20;;;31.10;44.60;;;;;;5070964;28;20198;-71
2023/02/18 06:53:43;;;;;;;9.75;2.78;;;31.30;44.50;;;;;;5070207;28;20284;-73
2023/02/18 06:56:10;;;;;;;7.47;2.85;;;31.40;43.40;;;;;;5069380;28;20179;-74
2023/02/18 06:58:38;;;;;;;12.95;4.13;;;30.90;45.40;;;;;;5066111;28;20203;-72
2023/02/18 07:01:06;;;;;;;9.40;3.42;;;30.10;47.90;;;;;;5066142;28;20183;-75
2023/02/18 07:03:33;;;;;;;11.80;3.20;;;29.50;49.20;;;;;;5066577;28;20182;-71
2023/02/18 07:06:01;;;;;;;10.93;3.00;;;29.00;50.70;;;;;;5065145;28;20238;-71
2023/02/18 07:08:29;;;;;;;9.43;3.23;;;28.80;51.10;;;;;;5068447;28;20180;-73
2023/02/18 07:10:57;;;;;;;11.40;2.80;;;28.80;51.50;;;;;;5067983;28;20194;-71
2023/02/18 07:13:24;;;;;;;7.93;2.70;;;28.70;50.00;;;;;;5066992;28;20254;-71
2023/02/18 07:15:52;;;;;;;8.47;2.63;;;28.80;49.10;;;;;;5071242;28;20654;-74
2023/02/18 07:18:20;;;;;;;5.13;2.03;;;28.90;48.90;;;;;;5067633;28;20687;-71
2023/02/18 07:20:47;;;;;;;9.70;3.30;;;28.90;48.10;;;;;;5070017;28;20183;-72
2023/02/18 07:23:14;;;;;;;11.87;2.93;;;28.90;48.70;;;;;;5069632;28;20183;-71
2023/02/18 07:25:42;;;;;;;10.13;2.80;;;28.80;48.70;;;;;;5063408;28;20215;-71
2023/02/18 07:28:09;;;;;;;13.80;2.27;;;28.80;47.80;;;;;;5063225;28;20179;-71
2023/02/18 07:30:36;;;;;;;7.93;2.77;;;28.60;47.10;;;;;;5066451;28;20176;-72
2023/02/18 07:33:04;;;;;;;7.43;2.93;;;28.60;48.30;;;;;;5071143;28;20183;-75
2023/02/18 07:35:31;;;;;;;6.93;2.10;;;28.60;48.10;;;;;;5071691;28;20215;-72
2023/02/18 07:37:59;;;;;;;11.33;1.90;;;28.70;47.60;;;;;;5073853;28;20198;-74
2023/02/18 07:40:26;;;;;;;7.37;1.90;;;28.60;46.70;;;;;;5071667;28;20175;-72
2023/02/18 07:42:53;;;;;;;6.50;1.17;;;28.30;46.70;;;;;;5073689;28;20582;-73
2023/02/18 07:45:20;;;;;;;5.00;1.27;;;27.30;49.70;;;;;;5073876;28;20238;-76
2023/02/18 07:47:48;;;;;;;4.20;1.20;;;26.90;52.30;;;;;;5072440;28;20237;-74
2023/02/18 07:50:15;;;;;;;3.80;1.40;;;26.40;54.20;;;;;;5066506;28;20182;-71
2023/02/18 07:52:43;;;;;;;4.20;1.17;;;26.00;57.00;;;;;;5074051;28;20270;-74
2023/02/18 07:55:10;;;;;;;3.30;1.30;;;25.60;58.40;;;;;;5073468;28;20891;-73
2023/02/18 07:57:56;;;;;;;2.13;0.73;;;25.50;59.20;;;;;;5074060;28;20200;-74
2023/02/18 08:00:23;;;;;;;5.07;1.77;;;25.30;60.40;;;;;;5073163;28;20229;-74
2023/02/18 08:02:51;;;;;;;2.23;1.37;;;25.20;61.20;;;;;;5072614;28;20241;-73
2023/02/18 08:05:18;;;;;;;2.73;1.60;;;25.10;62.40;;;;;;5072021;28;20227;-74
2023/02/18 08:07:45;;;;;;;4.03;1.93;;;25.00;65.30;;;;;;5072337;28;20576;-75
2023/02/18 08:10:13;;;;;;;6.67;3.43;;;24.60;68.20;;;;;;5072123;28;20272;-78
2023/02/18 08:12:40;;;;;;;11.33;3.80;;;24.40;71.50;;;;;;5073425;28;20187;-76
2023/02/18 08:15:08;;;;;;;7.53;3.20;;;23.90;74.10;;;;;;5072882;28;20213;-76
2023/02/18 08:17:35;;;;;;;5.87;2.07;;;23.80;75.30;;;;;;5073684;28;20179;-76
2023/02/18 08:20:02;;;;;;;5.00;2.10;;;23.60;74.60;;;;;;5068597;28;21453;-76
2023/02/18 08:22:30;;;;;;;6.73;2.13;;;23.60;75.30;;;;;;5072962;28;20183;-77
2023/02/18 08:24:58;;;;;;;5.97;2.27;;;23.60;74.60;;;;;;5069760;28;20211;-78
2023/02/18 08:27:25;;;;;;;4.60;1.63;;;23.60;73.80;;;;;;5070848;28;20236;-72
2023/02/18 08:29:54;;;;;;;4.27;1.80;;;23.70;73.70;;;;;;5068155;28;20179;-73
2023/02/18 08:32:22;;;;;;;5.23;2.00;;;23.70;72.70;;;;;;5073064;28;20281;-70
2023/02/18 08:34:49;;;;;;;2.93;1.30;;;23.80;73.10;;;;;;5071763;28;20258;-73
2023/02/18 08:37:16;;;;;;;3.57;1.80;;;23.80;72.20;;;;;;5072423;28;20179;-68
2023/02/18 08:39:44;;;;;;;3.33;1.50;;;23.80;71.30;;;;;;5071453;28;20658;-77
2023/02/18 08:42:11;;;;;;;5.67;1.70;;;23.80;72.00;;;;;;5071890;28;20183;-69
2023/02/18 08:44:39;;;;;;;3.33;1.67;;;23.80;73.60;;;;;;5068482;28;20286;-68
2023/02/18 08:47:06;;;;;;;3.80;1.80;;;23.80;73.60;;;;;;5072734;28;20183;-76
2023/02/18 08:49:35;;;;;;;5.47;1.30;;;23.70;73.90;;;;;;5066048;28;20198;-72
2023/02/18 08:52:04;;;;;;;2.67;1.60;;;23.80;75.30;;;;;;5071457;28;20191;-73
2023/02/18 08:54:31;;;;;;;3.83;1.60;;;23.80;75.80;;;;;;5072804;28;20186;-75
2023/02/18 08:56:59;;;;;;;5.73;1.60;;;23.70;75.10;;;;;;5070301;28;20553;-74
2023/02/18 08:59:26;;;;;;;6.40;2.23;;;23.80;75.70;;;;;;5069272;28;20194;-75
2023/02/18 09:01:54;;;;;;;5.87;1.90;;;23.90;76.40;;;;;;5064836;28;20171;-75
2023/02/18 09:04:22;;;;;;;5.40;2.30;;;24.00;76.80;;;;;;5065723;28;20233;-75
2023/02/18 09:06:49;;;;;;;7.83;4.77;;;24.00;77.80;;;;;;5061810;28;20191;-72
2023/02/18 09:09:18;;;;;;;13.53;7.33;;;24.10;79.30;;;;;;5067546;28;20171;-75
2023/02/18 09:11:46;;;;;;;9.80;4.03;;;24.00;80.90;;;;;;5066479;28;20206;-77
2023/02/18 09:14:13;;;;;;;10.67;2.23;;;23.80;82.40;;;;;;5070559;28;20179;-74
2023/02/18 09:16:41;;;;;;;7.30;1.90;;;23.50;84.20;;;;;;5070578;28;20286;-72
2023/02/18 09:19:09;;;;;;;7.93;1.90;;;23.30;84.30;;;;;;5068357;28;20186;-73
2023/02/18 09:21:36;;;;;;;5.20;1.90;;;23.20;83.80;;;;;;5064667;28;20177;-71
2023/02/18 09:24:04;;;;;;;10.27;2.23;;;22.80;82.70;;;;;;5066428;28;20265;-70
2023/02/18 09:26:31;;;;;;;4.67;2.00;;;22.80;84.90;;;;;;5071666;28;20282;-72
2023/02/18 09:28:59;;;;;;;8.40;2.23;;;22.80;84.90;;;;;;5071753;28;20266;-70
2023/02/18 09:31:28;;;;;;;8.10;2.00;;;22.70;84.00;;;;;;5065659;28;20183;-71
2023/02/18 09:33:57;;;;;;;6.63;2.67;;;22.70;83.60;;;;;;5064104;28;20202;-71
2023/02/18 09:36:26;;;;;;;9.27;2.43;;;22.80;85.20;;;;;;5071792;28;20180;-72
2023/02/18 09:38:54;;;;;;;10.53;2.83;;;22.70;86.80;;;;;;5068006;28;20187;-72
2023/02/18 09:41:38;;;;;;;6.53;2.70;;;22.60;87.30;;;;;;5067614;28;20603;-71
2023/02/18 09:44:27;;;;;;;8.57;2.40;;;22.50;87.30;;;;;;5064905;28;20182;-71
2023/02/18 09:47:06;;;;;;;10.37;2.83;;;22.30;87.00;;;;;;5067026;28;20730;-70
2023/02/18 09:49:39;;;;;;;11.20;2.63;;;22.30;87.10;;;;;;5065965;28;20508;-72
2023/02/18 09:52:19;;;;;;;10.77;2.70;;;22.40;87.90;;;;;;5070267;28;20201;-71
2023/02/18 09:54:48;;;;;;;7.33;2.70;;;22.40;87.60;;;;;;5067918;28;20179;-71
2023/02/18 09:57:27;;;;;;;7.93;2.33;;;22.40;86.90;;;;;;5068865;28;20224;-71
2023/02/18 10:00:12;;;;;;;10.43;2.90;;;22.50;86.80;;;;;;5060690;28;20183;-71
2023/02/18 10:02:57;;;;;;;8.87;3.30;;;22.50;86.50;;;;;;5064887;28;20202;-72
2023/02/18 10:05:27;;;;;;;9.93;3.10;;;22.50;86.60;;;;;;5060488;28;20227;-73
2023/02/18 10:08:04;;;;;;;12.93;2.90;;;22.50;86.30;;;;;;5071163;28;20179;-71
2023/02/18 10:10:46;;;;;;;11.93;3.30;;;22.50;86.60;;;;;;5067394;28;20183;-72
2023/02/18 10:13:17;;;;;;;13.27;5.87;;;22.50;86.80;;;;;;5067847;28;20183;-76
2023/02/18 10:15:46;;;;;;;13.13;5.13;;;22.50;83.60;;;;;;5070399;28;20665;-75
2023/02/18 10:18:53;;;;;;;6.90;5.00;;;22.60;81.10;;;;;;5068260;28;20714;-73
2023/02/18 10:21:26;;;;;;;8.20;2.67;;;22.80;80.30;;;;;;5066776;28;20212;-73
2023/02/18 10:24:20;;;;;;;5.13;2.30;;;22.80;79.20;;;;;;5068774;28;20174;-73
2023/02/18 10:26:48;;;;;;;7.17;2.30;;;22.80;80.00;;;;;;5067432;28;20241;-74
2023/02/18 10:29:21;;;;;;;3.83;1.90;;;22.70;80.20;;;;;;5067497;28;20201;-73
2023/02/18 10:32:18;;;;;;;5.33;1.83;;;22.60;80.00;;;;;;5065228;28;20642;-74
2023/02/18 10:35:03;;;;;;;4.80;1.40;;;22.60;81.20;;;;;;5063227;28;20520;-73
2023/02/18 10:37:48;;;;;;;7.87;1.97;;;22.60;81.80;;;;;;5069097;28;20183;-74
2023/02/18 10:40:30;;;;;;;5.00;1.50;;;22.50;81.20;;;;;;5067842;28;20227;-72
2023/02/18 10:43:19;;;;;;;8.87;2.00;;;22.50;81.80;;;;;;5070577;28;20187;-74
2023/02/18 10:46:15;;;;;;;3.37;1.63;;;22.50;81.30;;;;;;5070963;28;20248;-73
2023/02/18 10:49:15;;;;;;;6.13;2.10;;;22.50;79.90;;;;;;5070118;28;20179;-71
2023/02/18 10:51:50;;;;;;;1.83;1.23;;;22.60;79.60;;;;;;5070058;28;20236;-72
2023/02/18 10:54:17;;;;;;;6.90;1.77;;;22.70;78.30;;;;;;5067128;28;20248;-72
2023/02/18 10:56:50;;;;;;;4.43;1.63;;;22.80;78.40;;;;;;5069473;28;20176;-72
2023/02/18 10:59:23;;;;;;;5.73;1.50;;;22.80;77.30;;;;;;5066567;28;20175;-69
2023/02/18 11:02:15;;;;;;;3.00;1.33;;;22.80;78.00;;;;;;5063898;28;20175;-71
2023/02/18 11:04:43;;;;;;;4.03;1.33;;;22.80;78.00;;;;;;5070026;28;20262;-72
2023/02/18 11:07:21;;;;;;;5.67;1.60;;;22.80;78.60;;;;;;5071773;28;20274;-72
2023/02/18 11:10:01;;;;;;;7.17;1.63;;;22.80;79.10;;;;;;5068701;28;20177;-72
2023/02/18 11:12:48;;;;;;;5.67;1.60;;;22.90;79.90;;;;;;5070554;28;20183;-72
2023/02/18 11:15:17;;;;;;;4.23;1.30;;;22.80;78.90;;;;;;5072860;28;20183;-74
2023/02/18 11:17:48;;;;;;;8.37;1.83;;;22.80;81.20;;;;;;5068181;28;20182;-73
2023/02/18 11:20:28;;;;;;;4.43;1.50;;;22.80;81.50;;;;;;5073851;28;20187;-72
2023/02/18 11:23:06;;;;;;;6.30;1.80;;;22.80;81.40;;;;;;5069436;28;20186;-73
2023/02/18 11:25:39;;;;;;;5.93;1.30;;;22.60;80.90;;;;;;5073293;28;20294;-74
2023/02/18 11:28:41;;;;;;;3.70;1.50;;;22.60;81.50;;;;;;5071518;28;20171;-73
2023/02/18 11:31:10;;;;;;;4.53;1.90;;;22.50;81.50;;;;;;5070352;28;20186;-74
2023/02/18 11:33:47;;;;;;;4.40;1.80;;;22.50;81.50;;;;;;5073959;28;20654;-74
2023/02/18 11:36:24;;;;;;;5.60;1.80;;;22.60;81.80;;;;;;5073353;28;20172;-76
2023/02/18 11:39:20;;;;;;;5.87;1.80;;;22.60;82.30;;;;;;5072089;28;20190;-74
2023/02/18 11:42:00;;;;;;;4.57;1.80;;;22.60;82.40;;;;;;5071433;28;20191;-76
2023/02/18 11:44:47;;;;;;;2.53;1.40;;;22.50;82.30;;;;;;5074705;28;20242;-75
2023/02/18 11:47:15;;;;;;;3.53;1.60;;;22.50;82.60;;;;;;5071977;28;20191;-73
2023/02/18 11:49:44;;;;;;;8.27;1.90;;;22.50;82.60;;;;;;5073334;28;20229;-76
2023/02/18 11:52:28;;;;;;;3.63;1.70;;;22.50;82.80;;;;;;5073656;28;20233;-76
2023/02/18 11:55:13;;;;;;;3.00;1.70;;;22.50;83.20;;;;;;5073424;28;20218;-75
2023/02/18 11:58:04;;;;;;;5.17;2.00;;;22.40;82.90;;;;;;5073716;28;20183;-75
2023/02/18 12:00:47;;;;;;;7.60;2.23;;;22.30;83.10;;;;;;5066757;28;21330;-68
2023/02/18 12:03:35;;;;;;;4.27;1.57;;;22.30;83.40;;;;;;5069857;28;20293;-78
2023/02/18 12:06:11;;;;;;;6.57;2.23;;;22.30;83.80;;;;;;5068041;28;20211;-74
2023/02/18 12:08:53;;;;;;;3.87;1.90;;;22.20;84.00;;;;;;5072996;28;20175;-76
2023/02/18 12:11:47;;;;;;;10.07;6.33;;;22.10;84.00;;;;;;5070648;28;20215;-79
2023/02/18 12:14:32;;;;;;;6.17;2.17;;;22.10;84.40;;;;;;5073863;28;20175;-80
2023/02/18 12:17:02;;;;;;;6.27;2.50;;;22.10;84.80;;;;;;5068898;28;20191;-71
2023/02/18 12:20:14;;;;;;;5.57;2.30;;;22.10;84.80;;;;;;5068893;28;20556;-79
2023/02/18 12:22:42;;;;;;;5.83;2.13;;;22.10;85.00;;;;;;5059234;28;20226;-74
2023/02/18 12:25:27;;;;;;;7.30;2.43;;;22.10;85.10;;;;;;5071996;28;20661;-76
2023/02/18 12:28:13;;;;;;;5.77;2.43;;;22.10;84.90;;;;;;5069551;28;20249;-79
2023/02/18 12:31:16;;;;;;;8.40;2.70;;;22.10;84.90;;;;;;5072612;28;20257;-74
2023/02/18 12:33:58;;;;;;;8.67;2.60;;;22.10;84.50;;;;;;5070944;28;20222;-72
2023/02/18 12:36:53;;;;;;;17.77;5.00;;;22.20;84.50;;;;;;5070223;28;20206;-73
2023/02/18 12:39:49;;;;;;;10.97;3.80;;;22.30;85.10;;;;;;5069877;28;20203;-71
2023/02/18 12:42:35;;;;;;;18.07;4.20;;;22.30;85.00;;;;;;5071044;28;20187;-74
2023/02/18 12:45:39;;;;;;;20.77;4.77;;;22.30;85.10;;;;;;5091051;28;20622;-74
2023/02/18 12:48:19;;;;;;;15.20;3.80;;;22.30;85.20;;;;;;5070020;28;20587;-72
2023/02/18 12:51:14;;;;;;;12.63;4.33;;;22.30;85.20;;;;;;5071852;28;20175;-73
2023/02/18 12:53:52;;;;;;;23.90;6.80;;;22.40;85.70;;;;;;5067685;28;20243;-79
2023/02/18 12:56:22;;;;;;;26.47;7.37;;;22.40;86.70;;;;;;5068527;28;20178;-77
2023/02/18 12:59:20;;;;;;;35.80;7.70;;;22.60;87.10;;;;;;5066661;28;20234;-77
2023/02/18 13:02:16;;;;;;;39.87;9.37;;;22.70;87.30;;;;;;5065534;28;20179;-81
2023/02/18 13:05:15;;;;;;;42.13;9.17;;;22.70;87.20;;;;;;5071532;28;20261;-78
2023/02/18 13:07:55;;;;;;;44.03;9.07;;;22.70;87.30;;;;;;5068978;28;20199;-81
2023/02/18 13:11:01;;;;;;;41.93;10.37;;;22.80;87.40;;;;;;5067779;28;20549;-81
2023/02/18 13:13:40;;;;;;;37.60;8.57;;;22.80;87.40;;;;;;5047425;28;20195;-79
2023/02/18 13:16:15;;;;;;;38.67;9.00;;;22.80;87.20;;;;;;5069443;28;20266;-80